Time;durP1;ratioP1;P1;durP2;ratioP2;P2;SDS_P1;SDS_P2;PMS_P1;PMS_P2;Temp;Humidity;BMP_temperature;BMP_pressure;BME280_temperature;BME280_humidity;BME280_pressure;Samples;Min_cycle;Max_cycle;Signal;HPM_P1;HPM_P2
2022/02/15 00:03:08;;;;;;;59.55;25.33;;;;;;;;;;10449701;28;20119;-74
2022/02/15 00:08:08;;;;;;;58.87;26.87;;;;;;;;;;10449906;28;20556;-69
2022/02/15 00:13:09;;;;;;;60.90;29.65;;;;;;;;;;10449043;28;20062;-71
2022/02/15 00:18:09;;;;;;;84.15;36.08;;;;;;;;;;10449142;28;20504;-74
2022/02/15 00:23:10;;;;;;;65.93;33.75;;;;;;;;;;10449573;28;20053;-74
2022/02/15 00:28:10;;;;;;;71.90;36.05;;;;;;;;;;10487286;28;20818;-77
2022/02/15 00:33:11;;;;;;;78.13;38.40;;;;;;;;;;10481149;28;20478;-71
2022/02/15 00:38:11;;;;;;;72.97;38.58;;;;;;;;;;10455273;28;20025;-77
2022/02/15 00:43:11;;;;;;;81.88;39.30;;;;;;;;;;10490526;28;20116;-74
2022/02/15 00:48:12;;;;;;;91.20;41.90;;;;;;;;;;10489483;28;20028;-71
2022/02/15 00:53:13;;;;;;;88.93;40.80;;;;;;;;;;10489586;28;20086;-71
2022/02/15 00:58:13;;;;;;;88.35;42.17;;;;;;;;;;10491600;28;20029;-77
2022/02/15 01:03:13;;;;;;;79.10;37.13;;;;;;;;;;10464424;28;20503;-72
2022/02/15 01:08:14;;;;;;;77.03;36.40;;;;;;;;;;10447757;28;20060;-72
2022/02/15 01:13:14;;;;;;;81.53;36.00;;;;;;;;;;10447773;28;20025;-73
2022/02/15 01:18:14;;;;;;;82.78;38.72;;;;;;;;;;10463154;28;20274;-76
2022/02/15 01:23:15;;;;;;;86.37;38.60;;;;;;;;;;10489240;28;20033;-71
2022/02/15 01:28:15;;;;;;;95.28;45.70;;;;;;;;;;10488600;28;20039;-72
2022/02/15 01:33:15;;;;;;;82.13;43.83;;;;;;;;;;10488177;28;20086;-72
2022/02/15 01:38:16;;;;;;;78.53;38.50;;;;;;;;;;10488416;28;20482;-75
2022/02/15 01:43:16;;;;;;;82.60;38.72;;;;;;;;;;10489167;28;20028;-75
2022/02/15 01:48:16;;;;;;;84.15;40.05;;;;;;;;;;10474062;28;20035;-77
2022/02/15 01:53:16;;;;;;;88.72;41.55;;;;;;;;;;10463315;28;20033;-72
2022/02/15 01:58:17;;;;;;;76.75;38.92;;;;;;;;;;10462657;28;20565;-69
2022/02/15 02:03:17;;;;;;;79.88;37.03;;;;;;;;;;10448481;28;20511;-71
2022/02/15 02:08:18;;;;;;;79.32;41.33;;;;;;;;;;10462327;28;20049;-70
2022/02/15 02:13:19;;;;;;;86.07;41.15;;;;;;;;;;10445823;28;20094;-72
2022/02/15 02:18:19;;;;;;;88.00;42.90;;;;;;;;;;10462398;28;20013;-70
2022/02/15 02:23:20;;;;;;;86.90;41.17;;;;;;;;;;10428743;28;20017;-76
2022/02/15 02:28:21;;;;;;;89.32;40.30;;;;;;;;;;10462203;28;20266;-78
2022/02/15 02:33:21;;;;;;;95.47;45.72;;;;;;;;;;10466328;28;20025;-77
2022/02/15 02:38:21;;;;;;;95.57;45.00;;;;;;;;;;10470217;28;20041;-69
2022/02/15 02:43:21;;;;;;;86.65;41.10;;;;;;;;;;10455688;28;20374;-78
2022/02/15 02:48:22;;;;;;;81.20;40.67;;;;;;;;;;10477627;28;20488;-72
2022/02/15 02:53:22;;;;;;;88.63;37.70;;;;;;;;;;10457397;28;20098;-71
2022/02/15 02:58:22;;;;;;;86.18;38.13;;;;;;;;;;10454210;28;20778;-78
2022/02/15 03:03:23;;;;;;;82.18;39.05;;;;;;;;;;10452979;28;20116;-76
2022/02/15 03:08:23;;;;;;;87.10;40.63;;;;;;;;;;10452900;28;20053;-70
2022/02/15 03:13:23;;;;;;;87.57;40.30;;;;;;;;;;10452695;28;20503;-72
2022/02/15 03:18:23;;;;;;;76.95;39.72;;;;;;;;;;10452767;28;20055;-71
2022/02/15 03:23:24;;;;;;;88.00;38.35;;;;;;;;;;10452276;28;20079;-74
2022/02/15 03:28:24;;;;;;;86.22;42.10;;;;;;;;;;10460623;28;20108;-70
2022/02/15 03:33:24;;;;;;;86.65;36.28;;;;;;;;;;10460402;28;20036;-71
2022/02/15 03:38:24;;;;;;;91.45;38.35;;;;;;;;;;10493408;28;20560;-72
2022/02/15 03:43:25;;;;;;;90.80;36.53;;;;;;;;;;10493679;28;20033;-78
2022/02/15 03:48:25;;;;;;;99.60;39.20;;;;;;;;;;10482945;28;20025;-72
2022/02/15 03:53:25;;;;;;;100.82;43.45;;;;;;;;;;10490307;28;20025;-71
2022/02/15 03:58:26;;;;;;;103.43;42.47;;;;;;;;;;10496315;28;20029;-71
2022/02/15 04:03:26;;;;;;;117.82;50.15;;;;;;;;;;10492075;28;20027;-77
2022/02/15 04:08:26;;;;;;;105.78;47.95;;;;;;;;;;10485769;28;20048;-72
2022/02/15 04:13:27;;;;;;;98.53;43.28;;;;;;;;;;10467038;28;20033;-71
2022/02/15 04:18:27;;;;;;;111.20;46.75;;;;;;;;;;10466628;28;20025;-72
2022/02/15 04:23:28;;;;;;;114.75;46.53;;;;;;;;;;10449824;28;20017;-71
2022/02/15 04:28:28;;;;;;;120.07;46.20;;;;;;;;;;10466448;28;20115;-71
2022/02/15 04:33:28;;;;;;;126.95;43.40;;;;;;;;;;10478790;28;20032;-71
2022/02/15 04:38:29;;;;;;;121.07;42.07;;;;;;;;;;10474301;28;20024;-70
2022/02/15 04:43:29;;;;;;;92.35;41.67;;;;;;;;;;10465358;28;20029;-70
2022/02/15 04:48:29;;;;;;;112.07;46.38;;;;;;;;;;10462843;28;20025;-71
2022/02/15 04:53:29;;;;;;;106.17;42.00;;;;;;;;;;10485698;28;20055;-71
2022/02/15 04:58:31;;;;;;;110.75;45.58;;;;;;;;;;10488324;28;20115;-71
2022/02/15 05:03:33;;;;;;;119.97;40.50;;;;;;;;;;10489477;28;20024;-71
2022/02/15 05:08:33;;;;;;;95.90;41.47;;;;;;;;;;10488525;28;20053;-70
2022/02/15 05:13:33;;;;;;;112.82;43.80;;;;;;;;;;10489164;28;20032;-74
2022/02/15 05:18:34;;;;;;;120.33;45.13;;;;;;;;;;10489292;28;20039;-74
2022/02/15 05:23:34;;;;;;;105.07;42.00;;;;;;;;;;10488751;28;20269;-71
2022/02/15 05:28:34;;;;;;;91.82;38.78;;;;;;;;;;10467608;28;20025;-75
2022/02/15 05:33:34;;;;;;;86.47;35.85;;;;;;;;;;10463433;28;20796;-78
2022/02/15 05:38:35;;;;;;;91.03;39.75;;;;;;;;;;10446157;28;20365;-75
2022/02/15 05:43:35;;;;;;;98.80;42.13;;;;;;;;;;10461687;28;20029;-71
2022/02/15 05:48:35;;;;;;;112.75;48.53;;;;;;;;;;10455003;28;20198;-76
2022/02/15 05:53:36;;;;;;;125.97;40.80;;;;;;;;;;10470240;28;20353;-73
2022/02/15 05:58:37;;;;;;;90.33;38.37;;;;;;;;;;10472767;28;20037;-77
2022/02/15 06:09:07;;;;;;;94.30;36.45;;;;;;;;;;10442456;28;20064;-79
2022/02/15 06:14:08;;;;;;;139.80;46.00;;;;;;;;;;10453937;28;20445;-76
2022/02/15 06:19:08;;;;;;;118.00;42.90;;;;;;;;;;10452680;28;20482;-77
2022/02/15 06:24:08;;;;;;;108.60;42.33;;;;;;;;;;10475221;28;20029;-78
2022/02/15 06:29:09;;;;;;;100.57;38.60;;;;;;;;;;10473380;28;20039;-77
2022/02/15 06:34:09;;;;;;;84.03;37.43;;;;;;;;;;10480749;28;20056;-75
2022/02/15 06:39:09;;;;;;;88.25;38.35;;;;;;;;;;10480391;28;20017;-76
2022/02/15 06:44:10;;;;;;;95.95;37.85;;;;;;;;;;10474798;28;20582;-77
2022/02/15 06:49:10;;;;;;;108.18;40.95;;;;;;;;;;10480884;28;20021;-70
2022/02/15 06:54:10;;;;;;;104.75;41.95;;;;;;;;;;10477390;28;20510;-71
2022/02/15 06:59:13;;;;;;;106.53;37.17;;;;;;;;;;10475424;28;20574;-75
2022/02/15 07:04:15;;;;;;;83.15;35.13;;;;;;;;;;10474316;28;20029;-75
2022/02/15 07:09:15;;;;;;;93.43;37.42;;;;;;;;;;10477860;28;20051;-74
2022/02/15 07:14:15;;;;;;;83.33;34.83;;;;;;;;;;10467164;28;20032;-72
2022/02/15 07:19:15;;;;;;;91.75;35.33;;;;;;;;;;10535573;23;20397;-75
2022/02/15 07:24:16;;;;;;;90.18;35.67;;;;;;;;;;10526280;28;20025;-77
2022/02/15 07:29:17;;;;;;;67.90;30.35;;;;;;;;;;10510737;28;20020;-73
2022/02/15 07:34:17;;;;;;;54.63;25.43;;;;;;;;;;10507868;28;20031;-71
2022/02/15 07:39:17;;;;;;;74.27;33.83;;;;;;;;;;10493486;28;20521;-75
2022/02/15 07:44:17;;;;;;;62.23;28.37;;;;;;;;;;10495781;28;20028;-75
2022/02/15 07:49:18;;;;;;;53.38;25.27;;;;;;;;;;10501754;28;20028;-76
2022/02/15 07:54:21;;;;;;;66.00;28.10;;;;;;;;;;10483801;28;20028;-71
2022/02/15 07:59:21;;;;;;;59.20;26.75;;;;;;;;;;10514946;28;20032;-75
2022/02/15 08:04:22;;;;;;;68.47;29.53;;;;;;;;;;10526505;28;20032;-76
2022/02/15 08:09:24;;;;;;;55.45;26.83;;;;;;;;;;10526047;28;20016;-76
2022/02/15 08:14:25;;;;;;;64.80;29.15;;;;;;;;;;10523822;28;20101;-70
2022/02/15 08:19:26;;;;;;;68.20;28.30;;;;;;;;;;10504843;28;20427;-76
2022/02/15 08:24:28;;;;;;;60.72;26.35;;;;;;;;;;10525350;28;20035;-77
2022/02/15 08:29:28;;;;;;;53.83;26.33;;;;;;;;;;10524585;28;20032;-70
2022/02/15 08:34:28;;;;;;;63.25;29.60;;;;;;;;;;10500760;28;20028;-74
2022/02/15 08:39:29;;;;;;;74.43;32.90;;;;;;;;;;10524790;28;20121;-77
2022/02/15 08:44:29;;;;;;;75.68;33.70;;;;;;;;;;10526722;28;20028;-70
2022/02/15 08:49:29;;;;;;;89.28;37.33;;;;;;;;;;10524894;28;20043;-74
2022/02/15 08:54:30;;;;;;;81.37;34.13;;;;;;;;;;10526008;28;20032;-71
2022/02/15 08:59:30;;;;;;;72.63;32.67;;;;;;;;;;10524333;28;20024;-71
2022/02/15 09:04:30;;;;;;;78.40;35.38;;;;;;;;;;10525242;28;20020;-75
2022/02/15 09:09:31;;;;;;;73.83;33.20;;;;;;;;;;10524022;28;20488;-71
2022/02/15 09:14:31;;;;;;;66.60;30.63;;;;;;;;;;10520495;28;20488;-72
2022/02/15 09:19:32;;;;;;;71.20;32.05;;;;;;;;;;10483155;28;20519;-75
2022/02/15 09:24:33;;;;;;;67.20;32.15;;;;;;;;;;10483485;28;20524;-76
2022/02/15 09:29:33;;;;;;;68.75;32.92;;;;;;;;;;10482087;28;20081;-72
2022/02/15 09:34:33;;;;;;;53.42;26.25;;;;;;;;;;10516193;28;20395;-78
2022/02/15 09:39:33;;;;;;;60.92;27.65;;;;;;;;;;10522112;28;20627;-76
2022/02/15 09:44:34;;;;;;;56.20;25.23;;;;;;;;;;10522701;28;20165;-73
2022/02/15 09:49:50;;;;;;;51.73;24.00;;;;;;;;;;10522309;28;20081;-75
2022/02/15 09:54:52;;;;;;;49.55;22.48;;;;;;;;;;10505742;28;20446;-74
2022/02/15 09:59:53;;;;;;;52.45;24.08;;;;;;;;;;10481119;28;20036;-74
2022/02/15 10:04:54;;;;;;;45.80;22.00;;;;;;;;;;10483016;28;20028;-73
2022/02/15 10:09:56;;;;;;;48.42;21.90;;;;;;;;;;10481663;28;20400;-76
2022/02/15 10:14:56;;;;;;;40.50;17.77;;;;;;;;;;10485890;28;20030;-76
2022/02/15 10:19:57;;;;;;;35.43;18.20;;;;;;;;;;10522103;28;20034;-77
2022/02/15 10:24:58;;;;;;;30.15;14.73;;;;;;;;;;10521973;28;20197;-73
2022/02/15 10:29:58;;;;;;;34.70;18.02;;;;;;;;;;10522119;28;20392;-77
2022/02/15 10:34:59;;;;;;;35.38;17.83;;;;;;;;;;10513382;28;20020;-76
2022/02/15 10:40:04;;;;;;;31.70;16.70;;;;;;;;;;10482815;28;20032;-75
2022/02/15 10:45:05;;;;;;;28.55;15.90;;;;;;;;;;10479139;28;20031;-70
2022/02/15 10:50:09;;;;;;;30.38;16.45;;;;;;;;;;10489793;28;20027;-75
2022/02/15 10:55:11;;;;;;;29.75;14.80;;;;;;;;;;10481511;28;20035;-76
2022/02/15 11:00:12;;;;;;;24.38;14.52;;;;;;;;;;10497233;28;20032;-72
2022/02/15 11:05:13;;;;;;;26.25;14.10;;;;;;;;;;10487445;28;20454;-77
2022/02/15 11:10:22;;;;;;;27.92;14.77;;;;;;;;;;10496734;28;20023;-72
2022/02/15 11:15:23;;;;;;;29.02;14.40;;;;;;;;;;10528742;28;20551;-76
2022/02/15 11:20:29;;;;;;;25.63;12.07;;;;;;;;;;10518418;28;20025;-76
2022/02/15 11:25:34;;;;;;;17.42;10.88;;;;;;;;;;10486534;28;20519;-76
2022/02/15 11:31:04;;;;;;;23.15;12.20;;;;;;;;;;10487901;28;20033;-71
2022/02/15 11:36:05;;;;;;;24.20;12.38;;;;;;;;;;10507761;28;20040;-70
2022/02/15 11:41:07;;;;;;;24.48;13.98;;;;;;;;;;10467796;28;20032;-77
2022/02/15 11:46:07;;;;;;;21.00;11.63;;;;;;;;;;10526305;28;20036;-71
2022/02/15 11:51:23;;;;;;;27.27;13.53;;;;;;;;;;10529140;28;20035;-73
2022/02/15 11:56:24;;;;;;;20.45;12.48;;;;;;;;;;10519461;28;20035;-78
2022/02/15 12:01:28;;;;;;;45.37;17.70;;;;;;;;;;10496595;28;20094;-77
2022/02/15 12:06:36;;;;;;;20.67;12.35;;;;;;;;;;10483764;28;20801;-76
2022/02/15 12:11:40;;;;;;;31.00;13.05;;;;;;;;;;10502486;28;20051;-74
2022/02/15 12:16:41;;;;;;;24.85;12.32;;;;;;;;;;10503891;28;20036;-73
2022/02/15 12:21:41;;;;;;;20.05;11.75;;;;;;;;;;10502070;28;20032;-71
2022/02/15 12:26:42;;;;;;;25.77;12.53;;;;;;;;;;10501706;28;20097;-71
2022/02/15 12:31:42;;;;;;;25.63;12.65;;;;;;;;;;10494999;28;20112;-71
2022/02/15 12:36:42;;;;;;;38.10;14.73;;;;;;;;;;10545809;22;20540;-75
2022/02/15 12:41:44;;;;;;;26.67;12.68;;;;;;;;;;10525988;28;20081;-74
2022/02/15 12:46:44;;;;;;;25.92;12.02;;;;;;;;;;10507426;28;20027;-72
2022/02/15 12:51:46;;;;;;;23.60;11.77;;;;;;;;;;10527167;28;20043;-72
2022/02/15 12:56:46;;;;;;;21.20;12.35;;;;;;;;;;10521241;28;20479;-73
2022/02/15 13:01:46;;;;;;;23.40;12.80;;;;;;;;;;10504014;28;20028;-77
2022/02/15 13:06:50;;;;;;;30.45;13.65;;;;;;;;;;10483830;28;20033;-72
2022/02/15 13:11:56;;;;;;;24.38;12.45;;;;;;;;;;10506841;28;20077;-73
2022/02/15 13:16:58;;;;;;;19.65;12.25;;;;;;;;;;10516051;28;20031;-73
2022/02/15 13:21:58;;;;;;;25.63;11.70;;;;;;;;;;10520498;28;20873;-76
2022/02/15 13:26:59;;;;;;;22.67;11.37;;;;;;;;;;10509235;28;20093;-71
2022/02/15 13:31:59;;;;;;;26.07;11.47;;;;;;;;;;10498535;28;20400;-74
2022/02/15 13:37:01;;;;;;;22.00;10.23;;;;;;;;;;10467707;28;20387;-72
2022/02/15 13:42:02;;;;;;;23.95;11.10;;;;;;;;;;10457541;28;20361;-71
2022/02/15 13:47:02;;;;;;;23.10;11.45;;;;;;;;;;10457010;28;20017;-72
2022/02/15 13:52:03;;;;;;;22.35;10.93;;;;;;;;;;10456780;28;20459;-71
2022/02/15 13:57:03;;;;;;;26.38;10.68;;;;;;;;;;10456551;28;20536;-72
2022/02/15 14:02:04;;;;;;;22.57;11.47;;;;;;;;;;10439233;28;20125;-71
2022/02/15 14:07:07;;;;;;;23.25;11.85;;;;;;;;;;10480444;28;20262;-72
2022/02/15 14:12:08;;;;;;;28.60;12.55;;;;;;;;;;10479664;28;20398;-75
2022/02/15 14:22:27;;;;;;;27.13;12.10;;;;;;;;;;10451168;28;20415;-71
2022/02/15 14:27:27;;;;;;;25.23;13.87;;;;;;;;;;10438963;28;20029;-75
2022/02/15 14:32:27;;;;;;;26.17;12.73;;;;;;;;;;10456514;28;20036;-75
2022/02/15 14:37:30;;;;;;;26.42;12.55;;;;;;;;;;10468753;28;20290;-74
2022/02/15 14:42:33;;;;;;;28.75;12.93;;;;;;;;;;10469236;28;20024;-75
2022/02/15 14:47:33;;;;;;;27.33;13.13;;;;;;;;;;10478925;28;20078;-74
2022/02/15 14:52:36;;;;;;;23.50;12.55;;;;;;;;;;10476441;28;20035;-71
2022/02/15 14:57:36;;;;;;;26.35;13.00;;;;;;;;;;10459858;28;20104;-73
2022/02/15 15:02:38;;;;;;;26.53;13.97;;;;;;;;;;10476595;28;20028;-74
2022/02/15 15:07:38;;;;;;;29.42;13.65;;;;;;;;;;10457126;28;20052;-73
2022/02/15 15:12:40;;;;;;;27.17;13.43;;;;;;;;;;10437922;28;20103;-71
2022/02/15 15:17:41;;;;;;;31.00;14.07;;;;;;;;;;10454528;28;20020;-74
2022/02/15 15:22:41;;;;;;;31.35;15.50;;;;;;;;;;10453645;28;20029;-76
2022/02/15 15:27:42;;;;;;;34.85;15.82;;;;;;;;;;10437914;28;20164;-70
2022/02/15 15:32:42;;;;;;;39.58;15.55;;;;;;;;;;10475345;28;20036;-71
2022/02/15 15:37:42;;;;;;;30.97;15.43;;;;;;;;;;10449516;28;20403;-70
2022/02/15 15:42:43;;;;;;;36.83;15.27;;;;;;;;;;10442155;28;20044;-72
2022/02/15 15:47:46;;;;;;;34.20;15.60;;;;;;;;;;10474928;28;20037;-72
2022/02/15 15:52:48;;;;;;;40.72;16.73;;;;;;;;;;10486114;28;20024;-71
2022/02/15 15:57:48;;;;;;;33.95;16.27;;;;;;;;;;10485365;28;20031;-77
2022/02/15 16:02:49;;;;;;;33.22;15.90;;;;;;;;;;10485720;28;20024;-71
2022/02/15 16:07:49;;;;;;;34.55;14.57;;;;;;;;;;10483294;28;20032;-71
2022/02/15 16:12:49;;;;;;;33.85;13.70;;;;;;;;;;10479628;28;20055;-71
2022/02/15 16:17:50;;;;;;;37.45;15.70;;;;;;;;;;10472287;28;20029;-74
2022/02/15 16:22:50;;;;;;;28.17;14.35;;;;;;;;;;10440585;28;20035;-72
2022/02/15 16:27:50;;;;;;;49.25;12.77;;;;;;;;;;10444040;28;20029;-75
2022/02/15 16:32:51;;;;;;;19.27;9.53;;;;;;;;;;10456786;28;20390;-72
2022/02/15 16:37:51;;;;;;;20.70;8.65;;;;;;;;;;10443817;28;20049;-75
2022/02/15 16:42:51;;;;;;;17.98;8.57;;;;;;;;;;10459086;28;20020;-71
2022/02/15 16:47:52;;;;;;;28.90;9.75;;;;;;;;;;10459537;28;20339;-71
2022/02/15 16:52:52;;;;;;;21.80;11.35;;;;;;;;;;10481771;28;20147;-73
2022/02/15 16:57:52;;;;;;;22.38;11.07;;;;;;;;;;10482995;28;20025;-75
2022/02/15 17:02:52;;;;;;;26.43;11.10;;;;;;;;;;10461564;28;20032;-75
2022/02/15 17:07:53;;;;;;;39.58;13.45;;;;;;;;;;10459333;28;20016;-71
2022/02/15 17:12:53;;;;;;;24.75;13.20;;;;;;;;;;10476836;28;20032;-74
2022/02/15 17:17:53;;;;;;;29.38;13.27;;;;;;;;;;10469360;28;20033;-72
2022/02/15 17:22:54;;;;;;;32.70;13.20;;;;;;;;;;10443386;28;20108;-77
2022/02/15 17:27:54;;;;;;;35.23;13.37;;;;;;;;;;10450879;28;20598;-72
2022/02/15 17:32:54;;;;;;;37.78;14.25;;;;;;;;;;10483564;28;20060;-70
2022/02/15 17:37:56;;;;;;;20.80;10.07;;;;;;;;;;10473612;28;20706;-69
2022/02/15 17:42:56;;;;;;;36.65;12.98;;;;;;;;;;10464604;28;20349;-71
2022/02/15 17:47:57;;;;;;;38.60;14.47;;;;;;;;;;10457580;28;20074;-71
2022/02/15 17:52:57;;;;;;;40.50;15.87;;;;;;;;;;10480547;28;20025;-74
2022/02/15 17:57:57;;;;;;;43.23;16.40;;;;;;;;;;10480804;28;20035;-70
2022/02/15 18:02:58;;;;;;;52.50;14.88;;;;;;;;;;10480818;28;20037;-76
2022/02/15 18:07:58;;;;;;;35.80;14.60;;;;;;;;;;10480664;28;20039;-74
2022/02/15 18:12:59;;;;;;;46.30;16.17;;;;;;;;;;10480935;28;20336;-72
2022/02/15 18:17:59;;;;;;;40.17;13.63;;;;;;;;;;10475450;28;20028;-76
2022/02/15 18:22:59;;;;;;;30.07;13.73;;;;;;;;;;10473369;28;20177;-73
2022/02/15 18:28:00;;;;;;;33.15;13.82;;;;;;;;;;10458298;28;20055;-71
2022/02/15 18:33:00;;;;;;;37.43;13.53;;;;;;;;;;10457973;28;20026;-73
2022/02/15 18:38:02;;;;;;;49.05;20.10;;;;;;;;;;10466083;28;20285;-71
2022/02/15 18:43:05;;;;;;;60.25;24.13;;;;;;;;;;10478912;28;20116;-71
2022/02/15 18:48:05;;;;;;;67.10;26.52;;;;;;;;;;10461687;28;20032;-70
2022/02/15 18:53:06;;;;;;;92.22;34.95;;;;;;;;;;10480502;28;20094;-70
2022/02/15 18:58:06;;;;;;;92.23;35.37;;;;;;;;;;10480596;28;20496;-71
2022/02/15 19:03:06;;;;;;;76.17;33.07;;;;;;;;;;10465386;28;20028;-75
2022/02/15 19:08:07;;;;;;;98.20;34.80;;;;;;;;;;10467255;28;20021;-70
2022/02/15 19:13:07;;;;;;;90.70;36.53;;;;;;;;;;10475748;28;20021;-72
2022/02/15 19:18:07;;;;;;;85.15;37.78;;;;;;;;;;10469503;28;20034;-72
2022/02/15 19:23:10;;;;;;;79.60;35.87;;;;;;;;;;10488077;28;20023;-75
2022/02/15 19:28:10;;;;;;;86.72;35.10;;;;;;;;;;10479856;28;20256;-71
2022/02/15 19:33:12;;;;;;;84.32;37.88;;;;;;;;;;10473617;28;20468;-70
2022/02/15 19:38:12;;;;;;;89.15;34.42;;;;;;;;;;10468844;28;20107;-76
2022/02/15 19:43:17;;;;;;;89.55;36.13;;;;;;;;;;10467862;28;20514;-71
2022/02/15 19:48:17;;;;;;;80.18;34.35;;;;;;;;;;10468548;28;20033;-70
2022/02/15 19:53:18;;;;;;;81.00;35.22;;;;;;;;;;10467518;28;20025;-72
2022/02/15 19:58:18;;;;;;;89.72;37.03;;;;;;;;;;10465790;28;20103;-71
2022/02/15 20:03:18;;;;;;;79.38;32.58;;;;;;;;;;10467689;28;20025;-73
2022/02/15 20:08:19;;;;;;;90.20;35.77;;;;;;;;;;10479903;28;20041;-77
2022/02/15 20:13:21;;;;;;;75.67;33.23;;;;;;;;;;10462934;28;20035;-71
2022/02/15 20:18:21;;;;;;;68.93;32.85;;;;;;;;;;10470248;28;20266;-76
2022/02/15 20:23:21;;;;;;;73.82;32.60;;;;;;;;;;10477567;28;20031;-71
2022/02/15 20:28:22;;;;;;;78.93;36.67;;;;;;;;;;10468314;28;20020;-75
2022/02/15 20:33:22;;;;;;;80.78;35.10;;;;;;;;;;10467244;28;20451;-71
2022/02/15 20:38:26;;;;;;;71.63;33.83;;;;;;;;;;10478781;28;20027;-72
2022/02/15 20:43:26;;;;;;;67.97;33.60;;;;;;;;;;10463172;28;20358;-72
2022/02/15 20:48:27;;;;;;;88.30;33.53;;;;;;;;;;10461979;28;20084;-72
2022/02/15 20:53:27;;;;;;;67.28;32.40;;;;;;;;;;10460679;28;20013;-76
2022/02/15 20:58:27;;;;;;;70.37;32.10;;;;;;;;;;10459204;28;20377;-75
2022/02/15 21:03:28;;;;;;;71.47;34.30;;;;;;;;;;10466859;28;20020;-77
2022/02/15 21:08:28;;;;;;;61.65;32.78;;;;;;;;;;10478305;28;20052;-76
2022/02/15 21:13:29;;;;;;;71.53;35.65;;;;;;;;;;10442347;28;20511;-72
2022/02/15 21:18:31;;;;;;;85.37;44.47;;;;;;;;;;10442608;28;20032;-77
2022/02/15 21:23:32;;;;;;;96.05;46.83;;;;;;;;;;10458211;28;20375;-75
2022/02/15 21:28:33;;;;;;;90.93;43.08;;;;;;;;;;10458263;28;20070;-75
2022/02/15 21:33:33;;;;;;;83.35;40.22;;;;;;;;;;10468004;28;20052;-73
2022/02/15 21:38:33;;;;;;;86.47;41.08;;;;;;;;;;10480991;28;20020;-76
2022/02/15 21:43:33;;;;;;;82.73;39.30;;;;;;;;;;10483044;28;20021;-76
2022/02/15 21:48:34;;;;;;;87.40;38.93;;;;;;;;;;10476425;28;20499;-72
2022/02/15 21:53:34;;;;;;;83.40;38.08;;;;;;;;;;10456659;28;20029;-70
2022/02/15 21:58:34;;;;;;;67.80;34.60;;;;;;;;;;10480620;28;20056;-77
2022/02/15 22:03:35;;;;;;;66.50;32.63;;;;;;;;;;10441398;28;20263;-74
2022/02/15 22:08:36;;;;;;;80.68;35.15;;;;;;;;;;10423178;28;20021;-73
2022/02/15 22:13:36;;;;;;;81.25;34.10;;;;;;;;;;10440433;28;20128;-71
2022/02/15 22:18:37;;;;;;;79.93;34.70;;;;;;;;;;10463475;28;20028;-72
2022/02/15 22:23:37;;;;;;;65.78;31.90;;;;;;;;;;10481570;28;20020;-75
2022/02/15 22:28:37;;;;;;;75.95;34.10;;;;;;;;;;10481033;28;20024;-74
2022/02/15 22:33:37;;;;;;;72.78;34.97;;;;;;;;;;10479822;23;20490;-70
2022/02/15 22:38:38;;;;;;;84.00;39.80;;;;;;;;;;10439006;28;20505;-76
2022/02/15 22:43:38;;;;;;;81.63;35.38;;;;;;;;;;10440280;28;20373;-74
2022/02/15 22:48:38;;;;;;;78.55;38.80;;;;;;;;;;10441080;28;20025;-71
2022/02/15 22:53:39;;;;;;;69.45;35.70;;;;;;;;;;10450432;28;20025;-73
2022/02/15 22:58:40;;;;;;;74.47;34.95;;;;;;;;;;10431537;28;20009;-75
2022/02/15 23:03:40;;;;;;;69.95;33.08;;;;;;;;;;10450665;28;20044;-74
2022/02/15 23:19:18;;;;;;;74.60;36.15;;;;;;;;;;10408076;28;20092;-71
2022/02/15 23:24:18;;;;;;;72.15;31.15;;;;;;;;;;10406088;28;20112;-71
2022/02/15 23:29:19;;;;;;;74.10;30.25;;;;;;;;;;10425420;28;20079;-76
2022/02/15 23:34:19;;;;;;;71.07;31.92;;;;;;;;;;10471835;28;20366;-76
2022/02/15 23:39:20;;;;;;;68.80;32.97;;;;;;;;;;10488302;28;20575;-72
2022/02/15 23:44:20;;;;;;;63.90;32.38;;;;;;;;;;10488552;28;20119;-74
2022/02/15 23:49:20;;;;;;;69.78;34.78;;;;;;;;;;10488305;28;20025;-70
2022/02/15 23:54:21;;;;;;;75.30;31.88;;;;;;;;;;10488780;28;20411;-74
2022/02/15 23:59:21;;;;;;;72.83;34.63;;;;;;;;;;10487702;28;20414;-73
